sensor_id;sensor_type;location;lat;lon;timestamp;temperature;humidity
34877;DHT22;21086;44.780;17.194;2023-04-01T00:01:47;15.40;99.90
34877;DHT22;21086;44.780;17.194;2023-04-01T00:04:14;15.40;99.90
34877;DHT22;21086;44.780;17.194;2023-04-01T00:06:42;15.30;99.90
34877;DHT22;21086;44.780;17.194;2023-04-01T00:09:09;15.20;99.90
34877;DHT22;21086;44.780;17.194;2023-04-01T00:11:36;14.90;99.90
34877;DHT22;21086;44.780;17.194;2023-04-01T00:14:04;14.60;99.90
34877;DHT22;21086;44.780;17.194;2023-04-01T00:16:31;14.50;99.90
34877;DHT22;21086;44.780;17.194;2023-04-01T00:18:58;14.40;99.90
34877;DHT22;21086;44.780;17.194;2023-04-01T00:21:26;14.40;99.90
34877;DHT22;21086;44.780;17.194;2023-04-01T00:23:53;14.30;99.90
34877;DHT22;21086;44.780;17.194;2023-04-01T00:26:21;14.30;99.90
34877;DHT22;21086;44.780;17.194;2023-04-01T00:28:49;14.30;99.90
34877;DHT22;21086;44.780;17.194;2023-04-01T00:31:16;14.30;99.90
34877;DHT22;21086;44.780;17.194;2023-04-01T00:33:43;14.20;99.90
34877;DHT22;21086;44.780;17.194;2023-04-01T00:36:14;14.10;99.90
34877;DHT22;21086;44.780;17.194;2023-04-01T00:38:42;14.00;99.90
34877;DHT22;21086;44.780;17.194;2023-04-01T00:41:11;13.90;99.90
34877;DHT22;21086;44.780;17.194;2023-04-01T00:43:43;13.70;99.90
34877;DHT22;21086;44.780;17.194;2023-04-01T00:46:11;13.50;99.90
34877;DHT22;21086;44.780;17.194;2023-04-01T00:48:58;13.50;99.90
34877;DHT22;21086;44.780;17.194;2023-04-01T00:51:27;13.60;99.90
34877;DHT22;21086;44.780;17.194;2023-04-01T00:53:57;13.60;99.90
34877;DHT22;21086;44.780;17.194;2023-04-01T00:56:33;13.70;99.90
34877;DHT22;21086;44.780;17.194;2023-04-01T00:59:06;13.70;99.90
34877;DHT22;21086;44.780;17.194;2023-04-01T01:01:36;13.70;99.90
34877;DHT22;21086;44.780;17.194;2023-04-01T01:04:03;13.60;99.90
34877;DHT22;21086;44.780;17.194;2023-04-01T01:06:39;13.60;99.90
34877;DHT22;21086;44.780;17.194;2023-04-01T01:12:14;13.60;99.90
34877;DHT22;21086;44.780;17.194;2023-04-01T01:26:55;13.50;99.90
34877;DHT22;21086;44.780;17.194;2023-04-01T01:30:06;13.50;99.90
34877;DHT22;21086;44.780;17.194;2023-04-01T01:37:33;13.40;99.90
34877;DHT22;21086;44.780;17.194;2023-04-01T01:40:03;13.40;99.90
34877;DHT22;21086;44.780;17.194;2023-04-01T01:42:33;13.50;99.90
34877;DHT22;21086;44.780;17.194;2023-04-01T01:45:04;13.50;99.90
34877;DHT22;21086;44.780;17.194;2023-04-01T01:47:33;13.60;99.90
34877;DHT22;21086;44.780;17.194;2023-04-01T01:50:02;13.50;99.90
34877;DHT22;21086;44.780;17.194;2023-04-01T01:52:30;13.50;99.90
34877;DHT22;21086;44.780;17.194;2023-04-01T01:54:58;13.50;99.90
34877;DHT22;21086;44.780;17.194;2023-04-01T01:57:36;13.60;99.90
34877;DHT22;21086;44.780;17.194;2023-04-01T02:00:10;13.60;99.90
34877;DHT22;21086;44.780;17.194;2023-04-01T02:02:43;13.50;99.90
34877;DHT22;21086;44.780;17.194;2023-04-01T02:05:17;13.50;99.90
34877;DHT22;21086;44.780;17.194;2023-04-01T02:07:49;13.50;99.90
34877;DHT22;21086;44.780;17.194;2023-04-01T02:10:19;13.60;99.90
34877;DHT22;21086;44.780;17.194;2023-04-01T02:12:49;13.50;99.90
34877;DHT22;21086;44.780;17.194;2023-04-01T02:15:18;13.50;99.90
34877;DHT22;21086;44.780;17.194;2023-04-01T02:17:47;13.50;99.90
34877;DHT22;21086;44.780;17.194;2023-04-01T02:20:18;13.50;99.90
34877;DHT22;21086;44.780;17.194;2023-04-01T02:22:54;13.40;99.90
34877;DHT22;21086;44.780;17.194;2023-04-01T02:25:34;13.30;99.90
34877;DHT22;21086;44.780;17.194;2023-04-01T02:28:04;13.40;99.90
34877;DHT22;21086;44.780;17.194;2023-04-01T02:30:35;13.40;99.90
34877;DHT22;21086;44.780;17.194;2023-04-01T02:33:03;13.30;99.90
34877;DHT22;21086;44.780;17.194;2023-04-01T02:35:41;13.40;99.90
34877;DHT22;21086;44.780;17.194;2023-04-01T02:38:08;13.30;99.90
34877;DHT22;21086;44.780;17.194;2023-04-01T02:40:56;13.30;99.90
34877;DHT22;21086;44.780;17.194;2023-04-01T02:43:23;13.20;99.90
34877;DHT22;21086;44.780;17.194;2023-04-01T02:45:50;13.20;99.90
34877;DHT22;21086;44.780;17.194;2023-04-01T02:48:17;13.10;99.90
34877;DHT22;21086;44.780;17.194;2023-04-01T02:50:44;13.10;99.90
34877;DHT22;21086;44.780;17.194;2023-04-01T02:53:11;13.20;99.90
34877;DHT22;21086;44.780;17.194;2023-04-01T02:55:38;13.20;99.90
34877;DHT22;21086;44.780;17.194;2023-04-01T02:58:05;13.20;99.90
34877;DHT22;21086;44.780;17.194;2023-04-01T03:00:32;13.10;99.90
34877;DHT22;21086;44.780;17.194;2023-04-01T03:03:00;13.00;99.90
34877;DHT22;21086;44.780;17.194;2023-04-01T03:05:27;12.90;99.90
34877;DHT22;21086;44.780;17.194;2023-04-01T03:07:55;12.90;99.90
34877;DHT22;21086;44.780;17.194;2023-04-01T03:10:22;12.90;99.90
34877;DHT22;21086;44.780;17.194;2023-04-01T03:12:49;12.90;99.90
34877;DHT22;21086;44.780;17.194;2023-04-01T03:15:16;12.60;99.90
34877;DHT22;21086;44.780;17.194;2023-04-01T03:17:43;12.50;99.90
34877;DHT22;21086;44.780;17.194;2023-04-01T03:20:11;12.40;99.90
34877;DHT22;21086;44.780;17.194;2023-04-01T03:22:38;12.40;99.90
34877;DHT22;21086;44.780;17.194;2023-04-01T03:25:10;12.40;99.90
34877;DHT22;21086;44.780;17.194;2023-04-01T03:27:38;12.40;99.90
34877;DHT22;21086;44.780;17.194;2023-04-01T03:30:05;12.30;99.90
34877;DHT22;21086;44.780;17.194;2023-04-01T03:32:33;12.30;99.90
34877;DHT22;21086;44.780;17.194;2023-04-01T03:35:00;12.30;99.90
34877;DHT22;21086;44.780;17.194;2023-04-01T03:37:27;12.20;99.90
34877;DHT22;21086;44.780;17.194;2023-04-01T03:39:54;12.30;99.90
34877;DHT22;21086;44.780;17.194;2023-04-01T03:42:21;12.20;99.90
34877;DHT22;21086;44.780;17.194;2023-04-01T03:44:48;12.10;99.90
34877;DHT22;21086;44.780;17.194;2023-04-01T03:47:15;12.10;99.90
34877;DHT22;21086;44.780;17.194;2023-04-01T03:49:42;12.00;99.90
34877;DHT22;21086;44.780;17.194;2023-04-01T03:52:10;12.00;99.90
34877;DHT22;21086;44.780;17.194;2023-04-01T03:54:38;12.10;99.90
34877;DHT22;21086;44.780;17.194;2023-04-01T03:57:05;11.80;99.90
34877;DHT22;21086;44.780;17.194;2023-04-01T03:59:32;11.70;99.90
34877;DHT22;21086;44.780;17.194;2023-04-01T04:02:00;11.60;99.90
34877;DHT22;21086;44.780;17.194;2023-04-01T04:04:27;11.50;99.90
34877;DHT22;21086;44.780;17.194;2023-04-01T04:06:54;11.50;99.90
34877;DHT22;21086;44.780;17.194;2023-04-01T04:09:22;11.40;99.90
34877;DHT22;21086;44.780;17.194;2023-04-01T04:11:49;11.30;99.90
34877;DHT22;21086;44.780;17.194;2023-04-01T04:14:16;10.60;99.90
34877;DHT22;21086;44.780;17.194;2023-04-01T04:16:44;11.20;99.90
34877;DHT22;21086;44.780;17.194;2023-04-01T04:19:11;11.10;99.90
34877;DHT22;21086;44.780;17.194;2023-04-01T04:21:38;10.90;99.90
34877;DHT22;21086;44.780;17.194;2023-04-01T04:24:06;11.00;99.90
34877;DHT22;21086;44.780;17.194;2023-04-01T04:26:33;11.00;99.90
34877;DHT22;21086;44.780;17.194;2023-04-01T04:29:00;11.10;99.90
34877;DHT22;21086;44.780;17.194;2023-04-01T04:31:28;11.10;99.90
34877;DHT22;21086;44.780;17.194;2023-04-01T04:33:55;11.10;99.90
34877;DHT22;21086;44.780;17.194;2023-04-01T04:36:23;11.30;99.90
34877;DHT22;21086;44.780;17.194;2023-04-01T04:38:50;11.30;99.90
34877;DHT22;21086;44.780;17.194;2023-04-01T04:41:18;11.10;99.90
34877;DHT22;21086;44.780;17.194;2023-04-01T04:43:55;11.00;99.90
34877;DHT22;21086;44.780;17.194;2023-04-01T04:46:23;10.90;99.90
34877;DHT22;21086;44.780;17.194;2023-04-01T04:48:50;10.80;99.90
34877;DHT22;21086;44.780;17.194;2023-04-01T04:51:19;10.70;99.90
34877;DHT22;21086;44.780;17.194;2023-04-01T04:53:46;10.50;99.90
34877;DHT22;21086;44.780;17.194;2023-04-01T04:56:17;10.50;99.90
34877;DHT22;21086;44.780;17.194;2023-04-01T04:58:45;10.40;99.90
34877;DHT22;21086;44.780;17.194;2023-04-01T05:01:14;10.40;99.90
34877;DHT22;21086;44.780;17.194;2023-04-01T05:03:42;10.40;99.90
34877;DHT22;21086;44.780;17.194;2023-04-01T05:06:12;10.50;99.90
34877;DHT22;21086;44.780;17.194;2023-04-01T05:08:40;10.40;99.90
34877;DHT22;21086;44.780;17.194;2023-04-01T05:11:17;10.40;99.90
34877;DHT22;21086;44.780;17.194;2023-04-01T05:13:45;10.30;99.90
34877;DHT22;21086;44.780;17.194;2023-04-01T05:16:15;10.40;99.90
34877;DHT22;21086;44.780;17.194;2023-04-01T05:18:43;10.60;99.90
34877;DHT22;21086;44.780;17.194;2023-04-01T05:21:12;10.60;99.90
34877;DHT22;21086;44.780;17.194;2023-04-01T05:23:40;10.40;99.90
34877;DHT22;21086;44.780;17.194;2023-04-01T05:26:09;10.40;99.90
34877;DHT22;21086;44.780;17.194;2023-04-01T05:28:36;10.30;99.90
34877;DHT22;21086;44.780;17.194;2023-04-01T05:31:06;10.40;99.90
34877;DHT22;21086;44.780;17.194;2023-04-01T05:33:33;10.60;99.90
34877;DHT22;21086;44.780;17.194;2023-04-01T05:36:14;10.70;99.90
34877;DHT22;21086;44.780;17.194;2023-04-01T05:38:41;10.70;99.90
34877;DHT22;21086;44.780;17.194;2023-04-01T05:41:13;10.90;99.90
34877;DHT22;21086;44.780;17.194;2023-04-01T05:43:41;10.90;99.90
34877;DHT22;21086;44.780;17.194;2023-04-01T05:46:08;11.00;99.90
34877;DHT22;21086;44.780;17.194;2023-04-01T05:48:37;11.10;99.90
34877;DHT22;21086;44.780;17.194;2023-04-01T05:51:04;11.10;99.90
34877;DHT22;21086;44.780;17.194;2023-04-01T05:53:32;11.20;99.90
34877;DHT22;21086;44.780;17.194;2023-04-01T05:56:03;11.30;99.90
34877;DHT22;21086;44.780;17.194;2023-04-01T05:58:30;11.40;99.90
34877;DHT22;21086;44.780;17.194;2023-04-01T06:01:10;11.40;99.90
34877;DHT22;21086;44.780;17.194;2023-04-01T06:03:42;11.40;99.90
34877;DHT22;21086;44.780;17.194;2023-04-01T06:06:24;11.50;99.90
34877;DHT22;21086;44.780;17.194;2023-04-01T06:08:53;11.50;99.90
34877;DHT22;21086;44.780;17.194;2023-04-01T06:11:37;11.50;99.90
34877;DHT22;21086;44.780;17.194;2023-04-01T06:20:16;11.60;99.90
34877;DHT22;21086;44.780;17.194;2023-04-01T06:25:29;11.60;99.90
34877;DHT22;21086;44.780;17.194;2023-04-01T06:39:13;11.70;99.90
34877;DHT22;21086;44.780;17.194;2023-04-01T06:52:22;11.90;99.90
34877;DHT22;21086;44.780;17.194;2023-04-01T06:55:02;12.00;99.90
34877;DHT22;21086;44.780;17.194;2023-04-01T06:57:38;12.00;99.90
34877;DHT22;21086;44.780;17.194;2023-04-01T07:02:55;12.00;99.90
34877;DHT22;21086;44.780;17.194;2023-04-01T07:05:29;12.00;99.90
34877;DHT22;21086;44.780;17.194;2023-04-01T07:08:01;12.00;99.90
34877;DHT22;21086;44.780;17.194;2023-04-01T07:10:50;12.00;99.90
34877;DHT22;21086;44.780;17.194;2023-04-01T07:13:27;12.00;99.90
34877;DHT22;21086;44.780;17.194;2023-04-01T07:18:40;11.90;99.90
34877;DHT22;21086;44.780;17.194;2023-04-01T07:21:21;11.90;99.90
34877;DHT22;21086;44.780;17.194;2023-04-01T07:23:49;11.70;99.90
34877;DHT22;21086;44.780;17.194;2023-04-01T07:26:22;11.50;99.90
34877;DHT22;21086;44.780;17.194;2023-04-01T07:28:51;11.40;99.90
34877;DHT22;21086;44.780;17.194;2023-04-01T07:31:22;11.50;99.90
34877;DHT22;21086;44.780;17.194;2023-04-01T07:40:20;11.60;99.90
34877;DHT22;21086;44.780;17.194;2023-04-01T07:45:33;10.90;99.90
34877;DHT22;21086;44.780;17.194;2023-04-01T07:50:50;10.80;99.90
34877;DHT22;21086;44.780;17.194;2023-04-01T07:59:00;10.80;99.90
34877;DHT22;21086;44.780;17.194;2023-04-01T08:01:44;10.90;99.90
34877;DHT22;21086;44.780;17.194;2023-04-01T08:07:07;11.40;99.90
34877;DHT22;21086;44.780;17.194;2023-04-01T08:15:33;12.30;99.90
34877;DHT22;21086;44.780;17.194;2023-04-01T08:18:15;12.50;99.90
34877;DHT22;21086;44.780;17.194;2023-04-01T08:20:48;12.50;99.90
34877;DHT22;21086;44.780;17.194;2023-04-01T08:23:24;12.70;99.90
34877;DHT22;21086;44.780;17.194;2023-04-01T08:28:41;12.90;99.90
34877;DHT22;21086;44.780;17.194;2023-04-01T08:33:56;13.30;99.90
34877;DHT22;21086;44.780;17.194;2023-04-01T08:36:32;13.60;99.90
34877;DHT22;21086;44.780;17.194;2023-04-01T08:39:10;13.50;99.90
34877;DHT22;21086;44.780;17.194;2023-04-01T08:44:34;13.30;99.90
34877;DHT22;21086;44.780;17.194;2023-04-01T08:53:15;13.90;99.90
34877;DHT22;21086;44.780;17.194;2023-04-01T09:06:40;14.10;99.90
34877;DHT22;21086;44.780;17.194;2023-04-01T09:12:23;14.30;99.90
34877;DHT22;21086;44.780;17.194;2023-04-01T10:05:27;13.50;99.90
34877;DHT22;21086;44.780;17.194;2023-04-01T10:14:22;13.90;99.90
34877;DHT22;21086;44.780;17.194;2023-04-01T10:20:55;14.60;99.90
34877;DHT22;21086;44.780;17.194;2023-04-01T10:31:40;15.40;99.90
34877;DHT22;21086;44.780;17.194;2023-04-01T10:36:57;16.20;99.90
34877;DHT22;21086;44.780;17.194;2023-04-01T10:51:16;18.30;99.90
34877;DHT22;21086;44.780;17.194;2023-04-01T10:56:45;19.80;99.90
34877;DHT22;21086;44.780;17.194;2023-04-01T11:16:13;28.20;99.90
34877;DHT22;21086;44.780;17.194;2023-04-01T11:24:19;28.50;99.90
34877;DHT22;21086;44.780;17.194;2023-04-01T11:30:10;29.90;99.90
34877;DHT22;21086;44.780;17.194;2023-04-01T11:32:52;30.40;99.90
34877;DHT22;21086;44.780;17.194;2023-04-01T11:44:28;31.10;99.90
34877;DHT22;21086;44.780;17.194;2023-04-01T11:47:13;32.00;99.90
34877;DHT22;21086;44.780;17.194;2023-04-01T11:58:15;33.90;99.90
34877;DHT22;21086;44.780;17.194;2023-04-01T12:06:37;33.60;99.90
34877;DHT22;21086;44.780;17.194;2023-04-01T12:20:28;37.70;99.90
34877;DHT22;21086;44.780;17.194;2023-04-01T12:31:27;38.20;99.90
34877;DHT22;21086;44.780;17.194;2023-04-01T12:37:17;39.80;99.90
34877;DHT22;21086;44.780;17.194;2023-04-01T12:40:17;40.30;99.90
34877;DHT22;21086;44.780;17.194;2023-04-01T12:45:49;41.30;99.90
34877;DHT22;21086;44.780;17.194;2023-04-01T12:59:51;41.50;99.90
34877;DHT22;21086;44.780;17.194;2023-04-01T13:08:23;41.30;99.90
34877;DHT22;21086;44.780;17.194;2023-04-01T13:11:06;41.30;99.90
34877;DHT22;21086;44.780;17.194;2023-04-01T13:16:22;41.30;99.90
34877;DHT22;21086;44.780;17.194;2023-04-01T13:19:12;40.80;99.90
34877;DHT22;21086;44.780;17.194;2023-04-01T13:35:57;42.40;99.90
34877;DHT22;21086;44.780;17.194;2023-04-01T13:44:41;43.10;99.90
34877;DHT22;21086;44.780;17.194;2023-04-01T13:58:35;43.20;98.70
34877;DHT22;21086;44.780;17.194;2023-04-01T14:06:37;43.60;97.40
34877;DHT22;21086;44.780;17.194;2023-04-01T14:11:59;43.50;95.30
34877;DHT22;21086;44.780;17.194;2023-04-01T14:17:46;42.70;93.50
34877;DHT22;21086;44.780;17.194;2023-04-01T14:20:36;42.90;92.40
34877;DHT22;21086;44.780;17.194;2023-04-01T14:34:05;42.90;89.30
34877;DHT22;21086;44.780;17.194;2023-04-01T14:39:38;42.60;86.20
34877;DHT22;21086;44.780;17.194;2023-04-01T14:48:05;44.10;86.30
34877;DHT22;21086;44.780;17.194;2023-04-01T14:50:46;43.50;84.50
34877;DHT22;21086;44.780;17.194;2023-04-01T14:55:53;42.40;80.60
34877;DHT22;21086;44.780;17.194;2023-04-01T14:58:22;42.40;80.50
34877;DHT22;21086;44.780;17.194;2023-04-01T15:09:23;41.10;90.00
34877;DHT22;21086;44.780;17.194;2023-04-01T15:12:06;41.40;75.00
34877;DHT22;21086;44.780;17.194;2023-04-01T15:23:43;41.00;71.90
34877;DHT22;21086;44.780;17.194;2023-04-01T15:31:40;41.30;68.00
34877;DHT22;21086;44.780;17.194;2023-04-01T15:45:56;29.70;62.70
34877;DHT22;21086;44.780;17.194;2023-04-01T15:48:46;28.10;64.40
34877;DHT22;21086;44.780;17.194;2023-04-01T16:00:13;24.60;79.40
34877;DHT22;21086;44.780;17.194;2023-04-01T16:02:48;23.90;89.70
34877;DHT22;21086;44.780;17.194;2023-04-01T16:14:41;23.30;96.00
34877;DHT22;21086;44.780;17.194;2023-04-01T16:22:45;22.00;99.10
34877;DHT22;21086;44.780;17.194;2023-04-01T16:30:40;20.60;99.90
34877;DHT22;21086;44.780;17.194;2023-04-01T16:38:50;18.00;99.90
34877;DHT22;21086;44.780;17.194;2023-04-01T16:41:36;17.20;99.90
34877;DHT22;21086;44.780;17.194;2023-04-01T16:44:22;16.50;99.90
34877;DHT22;21086;44.780;17.194;2023-04-01T16:46:55;16.10;99.90
34877;DHT22;21086;44.780;17.194;2023-04-01T16:50:26;15.80;99.90
34877;DHT22;21086;44.780;17.194;2023-04-01T16:55:19;15.70;99.90
34877;DHT22;21086;44.780;17.194;2023-04-01T16:57:56;15.50;99.90
34877;DHT22;21086;44.780;17.194;2023-04-01T17:00:49;15.20;99.90
34877;DHT22;21086;44.780;17.194;2023-04-01T17:03:30;15.30;99.90
34877;DHT22;21086;44.780;17.194;2023-04-01T17:18:12;15.40;99.90
34877;DHT22;21086;44.780;17.194;2023-04-01T17:20:46;15.40;99.90
34877;DHT22;21086;44.780;17.194;2023-04-01T17:23:35;15.30;99.90
34877;DHT22;21086;44.780;17.194;2023-04-01T17:43:25;15.10;99.90
34877;DHT22;21086;44.780;17.194;2023-04-01T17:45:54;15.00;99.90
34877;DHT22;21086;44.780;17.194;2023-04-01T17:48:49;14.80;99.90
34877;DHT22;21086;44.780;17.194;2023-04-01T17:51:34;14.60;99.90
34877;DHT22;21086;44.780;17.194;2023-04-01T18:10:51;13.50;99.90
34877;DHT22;21086;44.780;17.194;2023-04-01T18:13:48;13.30;99.90
34877;DHT22;21086;44.780;17.194;2023-04-01T18:32:37;13.40;99.90
34877;DHT22;21086;44.780;17.194;2023-04-01T18:35:56;13.40;99.90
34877;DHT22;21086;44.780;17.194;2023-04-01T18:38:38;13.30;99.90
34877;DHT22;21086;44.780;17.194;2023-04-01T18:41:22;13.20;99.90
34877;DHT22;21086;44.780;17.194;2023-04-01T18:44:34;13.20;99.90
34877;DHT22;21086;44.780;17.194;2023-04-01T18:53:13;13.40;99.90
34877;DHT22;21086;44.780;17.194;2023-04-01T18:55:47;13.40;99.90
34877;DHT22;21086;44.780;17.194;2023-04-01T19:01:22;13.40;99.90
34877;DHT22;21086;44.780;17.194;2023-04-01T19:04:07;13.30;99.90
34877;DHT22;21086;44.780;17.194;2023-04-01T19:09:49;13.30;99.90
34877;DHT22;21086;44.780;17.194;2023-04-01T19:20:26;13.30;99.90
34877;DHT22;21086;44.780;17.194;2023-04-01T19:23:11;13.30;99.90
34877;DHT22;21086;44.780;17.194;2023-04-01T19:25:43;13.30;99.90
34877;DHT22;21086;44.780;17.194;2023-04-01T19:31:20;13.30;99.90
34877;DHT22;21086;44.780;17.194;2023-04-01T19:36:53;13.10;99.90
34877;DHT22;21086;44.780;17.194;2023-04-01T19:39:39;13.00;99.90
34877;DHT22;21086;44.780;17.194;2023-04-01T19:51:06;12.70;99.90
34877;DHT22;21086;44.780;17.194;2023-04-01T19:56:36;12.30;99.90
34877;DHT22;21086;44.780;17.194;2023-04-01T20:04:39;12.00;99.90
34877;DHT22;21086;44.780;17.194;2023-04-01T20:07:16;12.00;99.90
34877;DHT22;21086;44.780;17.194;2023-04-01T20:14:58;11.80;99.90
34877;DHT22;21086;44.780;17.194;2023-04-01T20:17:31;11.80;99.90
34877;DHT22;21086;44.780;17.194;2023-04-01T20:28:19;11.80;99.90
34877;DHT22;21086;44.780;17.194;2023-04-01T20:36:57;11.70;99.90
34877;DHT22;21086;44.780;17.194;2023-04-01T20:44:40;11.70;99.90
34877;DHT22;21086;44.780;17.194;2023-04-01T20:59:33;11.70;99.90
34877;DHT22;21086;44.780;17.194;2023-04-01T21:08:17;11.60;99.90
34877;DHT22;21086;44.780;17.194;2023-04-01T21:33:11;11.50;99.90
34877;DHT22;21086;44.780;17.194;2023-04-01T21:41:38;11.40;99.90
34877;DHT22;21086;44.780;17.194;2023-04-01T21:44:13;11.30;99.90
34877;DHT22;21086;44.780;17.194;2023-04-01T22:02:04;10.60;99.90
34877;DHT22;21086;44.780;17.194;2023-04-01T22:04:40;10.50;99.90
34877;DHT22;21086;44.780;17.194;2023-04-01T22:16:00;10.30;99.90
34877;DHT22;21086;44.780;17.194;2023-04-01T22:19:10;10.20;99.90
34877;DHT22;21086;44.780;17.194;2023-04-01T22:21:42;10.30;99.90
34877;DHT22;21086;44.780;17.194;2023-04-01T22:30:04;10.30;99.90
34877;DHT22;21086;44.780;17.194;2023-04-01T22:32:47;10.30;99.90
34877;DHT22;21086;44.780;17.194;2023-04-01T22:35:20;10.30;99.90
34877;DHT22;21086;44.780;17.194;2023-04-01T22:40:52;10.40;99.90
34877;DHT22;21086;44.780;17.194;2023-04-01T22:43:32;10.40;99.90
34877;DHT22;21086;44.780;17.194;2023-04-01T22:49:15;10.50;99.90
34877;DHT22;21086;44.780;17.194;2023-04-01T22:57:13;10.40;99.90
34877;DHT22;21086;44.780;17.194;2023-04-01T22:59:47;10.40;99.90
34877;DHT22;21086;44.780;17.194;2023-04-01T23:02:20;10.30;99.90
34877;DHT22;21086;44.780;17.194;2023-04-01T23:04:58;10.30;99.90
34877;DHT22;21086;44.780;17.194;2023-04-01T23:10:34;10.00;99.90
34877;DHT22;21086;44.780;17.194;2023-04-01T23:13:06;9.90;99.90
34877;DHT22;21086;44.780;17.194;2023-04-01T23:15:36;9.90;99.90
34877;DHT22;21086;44.780;17.194;2023-04-01T23:18:14;9.90;99.90
34877;DHT22;21086;44.780;17.194;2023-04-01T23:26:38;10.00;99.90
34877;DHT22;21086;44.780;17.194;2023-04-01T23:29:14;9.90;99.90
34877;DHT22;21086;44.780;17.194;2023-04-01T23:31:43;9.80;99.90
34877;DHT22;21086;44.780;17.194;2023-04-01T23:36:43;9.80;99.90
34877;DHT22;21086;44.780;17.194;2023-04-01T23:39:25;9.70;99.90
34877;DHT22;21086;44.780;17.194;2023-04-01T23:41:56;9.80;99.90
34877;DHT22;21086;44.780;17.194;2023-04-01T23:44:25;9.70;99.90
34877;DHT22;21086;44.780;17.194;2023-04-01T23:46:54;9.70;99.90
34877;DHT22;21086;44.780;17.194;2023-04-01T23:49:43;9.60;99.90
34877;DHT22;21086;44.780;17.194;2023-04-01T23:52:21;9.70;99.90
34877;DHT22;21086;44.780;17.194;2023-04-01T23:55:08;9.60;99.90
34877;DHT22;21086;44.780;17.194;2023-04-01T23:57:39;9.60;99.90
